sensor_id;sensor_type;location;lat;lon;timestamp;pressure;altitude;pressure_sealevel;temperature
60731;BMP280;46580;52.114;11.674;2022-07-15T00:01:41;101314.13;;;15.17
60731;BMP280;46580;52.114;11.674;2022-07-15T00:04:07;101317.94;;;15.13
60731;BMP280;46580;52.114;11.674;2022-07-15T00:06:33;101322.16;;;15.14
60731;BMP280;46580;52.114;11.674;2022-07-15T00:08:58;101322.16;;;15.14
60731;BMP280;46580;52.114;11.674;2022-07-15T00:11:23;101313.22;;;15.27
60731;BMP280;46580;52.114;11.674;2022-07-15T00:13:49;101311.53;;;15.17
60731;BMP280;46580;52.114;11.674;2022-07-15T00:16:14;101318.88;;;15.12
60731;BMP280;46580;52.114;11.674;2022-07-15T00:18:40;101320.53;;;15.13
60731;BMP280;46580;52.114;11.674;2022-07-15T00:21:06;101320.28;;;15.16
60731;BMP280;46580;52.114;11.674;2022-07-15T00:23:31;101320.13;;;15.17
60731;BMP280;46580;52.114;11.674;2022-07-15T00:25:57;101325.28;;;15.08
60731;BMP280;46580;52.114;11.674;2022-07-15T00:28:22;101327.88;;;15.08
60731;BMP280;46580;52.114;11.674;2022-07-15T00:30:49;101323.72;;;14.96
60731;BMP280;46580;52.114;11.674;2022-07-15T00:33:15;101323.97;;;14.93
60731;BMP280;46580;52.114;11.674;2022-07-15T00:35:40;101321.41;;;14.93
60731;BMP280;46580;52.114;11.674;2022-07-15T00:38:09;101320.66;;;14.91
60731;BMP280;46580;52.114;11.674;2022-07-15T00:40:46;101314.75;;;15.00
60731;BMP280;46580;52.114;11.674;2022-07-15T00:43:12;101317.22;;;15.02
60731;BMP280;46580;52.114;11.674;2022-07-15T00:45:37;101317.72;;;14.96
60731;BMP280;46580;52.114;11.674;2022-07-15T00:48:03;101329.19;;;14.83
60731;BMP280;46580;52.114;11.674;2022-07-15T00:50:30;101326.75;;;14.81
60731;BMP280;46580;52.114;11.674;2022-07-15T00:53:07;101331.44;;;14.67
60731;BMP280;46580;52.114;11.674;2022-07-15T00:55:45;101332.19;;;14.58
60731;BMP280;46580;52.114;11.674;2022-07-15T00:58:15;101333.13;;;14.57
60731;BMP280;46580;52.114;11.674;2022-07-15T01:00:43;101335.50;;;14.60
60731;BMP280;46580;52.114;11.674;2022-07-15T01:03:08;101334.91;;;14.57
60731;BMP280;46580;52.114;11.674;2022-07-15T01:05:34;101334.09;;;14.56
60731;BMP280;46580;52.114;11.674;2022-07-15T01:08:01;101332.69;;;14.52
60731;BMP280;46580;52.114;11.674;2022-07-15T01:10:26;101333.91;;;14.49
60731;BMP280;46580;52.114;11.674;2022-07-15T01:12:51;101330.34;;;14.50
60731;BMP280;46580;52.114;11.674;2022-07-15T01:15:18;101332.50;;;14.45
60731;BMP280;46580;52.114;11.674;2022-07-15T01:17:45;101338.06;;;14.40
60731;BMP280;46580;52.114;11.674;2022-07-15T01:20:12;101335.84;;;14.36
60731;BMP280;46580;52.114;11.674;2022-07-15T01:22:39;101333.50;;;14.33
60731;BMP280;46580;52.114;11.674;2022-07-15T01:25:05;101338.94;;;14.30
60731;BMP280;46580;52.114;11.674;2022-07-15T01:27:30;101338.09;;;14.30
60731;BMP280;46580;52.114;11.674;2022-07-15T01:29:57;101345.31;;;14.26
60731;BMP280;46580;52.114;11.674;2022-07-15T01:32:23;101343.06;;;14.22
60731;BMP280;46580;52.114;11.674;2022-07-15T01:34:48;101341.69;;;14.18
60731;BMP280;46580;52.114;11.674;2022-07-15T01:37:15;101340.63;;;14.20
60731;BMP280;46580;52.114;11.674;2022-07-15T01:39:41;101341.94;;;14.15
60731;BMP280;46580;52.114;11.674;2022-07-15T01:42:06;101341.03;;;14.05
60731;BMP280;46580;52.114;11.674;2022-07-15T01:44:32;101348.69;;;14.07
60731;BMP280;46580;52.114;11.674;2022-07-15T01:46:57;101353.28;;;14.03
60731;BMP280;46580;52.114;11.674;2022-07-15T01:49:22;101353.53;;;14.00
60731;BMP280;46580;52.114;11.674;2022-07-15T01:51:51;101356.38;;;13.97
60731;BMP280;46580;52.114;11.674;2022-07-15T01:54:17;101354.81;;;13.95
60731;BMP280;46580;52.114;11.674;2022-07-15T01:56:42;101356.84;;;13.92
60731;BMP280;46580;52.114;11.674;2022-07-15T01:59:08;101352.63;;;13.91
60731;BMP280;46580;52.114;11.674;2022-07-15T02:01:33;101352.88;;;13.88
60731;BMP280;46580;52.114;11.674;2022-07-15T02:03:59;101356.53;;;13.85
60731;BMP280;46580;52.114;11.674;2022-07-15T02:06:25;101348.38;;;13.79
60731;BMP280;46580;52.114;11.674;2022-07-15T02:08:50;101356.03;;;13.80
60731;BMP280;46580;52.114;11.674;2022-07-15T02:11:16;101346.63;;;13.79
60731;BMP280;46580;52.114;11.674;2022-07-15T02:13:41;101344.84;;;13.80
60731;BMP280;46580;52.114;11.674;2022-07-15T02:16:06;101354.16;;;13.72
60731;BMP280;46580;52.114;11.674;2022-07-15T02:18:32;101350.97;;;13.68
60731;BMP280;46580;52.114;11.674;2022-07-15T02:20:58;101349.38;;;13.67
60731;BMP280;46580;52.114;11.674;2022-07-15T02:23:23;101351.25;;;13.65
60731;BMP280;46580;52.114;11.674;2022-07-15T02:25:48;101354.75;;;13.64
60731;BMP280;46580;52.114;11.674;2022-07-15T02:28:14;101361.97;;;13.61
60731;BMP280;46580;52.114;11.674;2022-07-15T02:30:41;101357.00;;;13.58
60731;BMP280;46580;52.114;11.674;2022-07-15T02:33:07;101363.47;;;13.63
60731;BMP280;46580;52.114;11.674;2022-07-15T02:35:33;101364.28;;;13.64
60731;BMP280;46580;52.114;11.674;2022-07-15T02:37:59;101371.44;;;13.71
60731;BMP280;46580;52.114;11.674;2022-07-15T02:40:24;101374.84;;;13.72
60731;BMP280;46580;52.114;11.674;2022-07-15T02:42:52;101362.38;;;13.76
60731;BMP280;46580;52.114;11.674;2022-07-15T02:45:19;101371.22;;;13.74
60731;BMP280;46580;52.114;11.674;2022-07-15T02:47:46;101376.63;;;13.71
60731;BMP280;46580;52.114;11.674;2022-07-15T02:50:11;101368.75;;;13.73
60731;BMP280;46580;52.114;11.674;2022-07-15T02:52:37;101374.50;;;13.76
60731;BMP280;46580;52.114;11.674;2022-07-15T02:55:03;101377.19;;;13.75
60731;BMP280;46580;52.114;11.674;2022-07-15T02:57:29;101375.69;;;13.72
60731;BMP280;46580;52.114;11.674;2022-07-15T02:59:54;101376.50;;;13.73
60731;BMP280;46580;52.114;11.674;2022-07-15T03:02:20;101380.16;;;13.70
60731;BMP280;46580;52.114;11.674;2022-07-15T03:04:45;101386.41;;;13.68
60731;BMP280;46580;52.114;11.674;2022-07-15T03:07:10;101379.44;;;13.68
60731;BMP280;46580;52.114;11.674;2022-07-15T03:09:36;101387.19;;;13.68
60731;BMP280;46580;52.114;11.674;2022-07-15T03:12:02;101387.69;;;13.62
60731;BMP280;46580;52.114;11.674;2022-07-15T03:14:27;101396.38;;;13.61
60731;BMP280;46580;52.114;11.674;2022-07-15T03:16:53;101399.94;;;13.60
60731;BMP280;46580;52.114;11.674;2022-07-15T03:19:18;101398.19;;;13.61
60731;BMP280;46580;52.114;11.674;2022-07-15T03:21:46;101399.69;;;13.63
60731;BMP280;46580;52.114;11.674;2022-07-15T03:24:11;101397.19;;;13.62
60731;BMP280;46580;52.114;11.674;2022-07-15T03:26:38;101394.16;;;13.68
60731;BMP280;46580;52.114;11.674;2022-07-15T03:29:03;101401.09;;;13.67
60731;BMP280;46580;52.114;11.674;2022-07-15T03:31:30;101403.81;;;13.66
60731;BMP280;46580;52.114;11.674;2022-07-15T03:33:55;101401.66;;;13.71
60731;BMP280;46580;52.114;11.674;2022-07-15T03:36:21;101400.72;;;13.72
60731;BMP280;46580;52.114;11.674;2022-07-15T03:38:46;101401.66;;;13.71
60731;BMP280;46580;52.114;11.674;2022-07-15T03:41:14;101398.38;;;13.69
60731;BMP280;46580;52.114;11.674;2022-07-15T03:43:39;101404.97;;;13.73
60731;BMP280;46580;52.114;11.674;2022-07-15T03:46:04;101402.72;;;13.68
60731;BMP280;46580;52.114;11.674;2022-07-15T03:48:30;101409.88;;;13.75
60731;BMP280;46580;52.114;11.674;2022-07-15T03:50:56;101405.19;;;13.70
60731;BMP280;46580;52.114;11.674;2022-07-15T03:53:21;101407.44;;;13.74
60731;BMP280;46580;52.114;11.674;2022-07-15T03:55:46;101405.78;;;13.73
60731;BMP280;46580;52.114;11.674;2022-07-15T03:58:11;101402.38;;;13.73
60731;BMP280;46580;52.114;11.674;2022-07-15T04:00:37;101413.66;;;13.72
60731;BMP280;46580;52.114;11.674;2022-07-15T04:03:02;101413.91;;;13.69
60731;BMP280;46580;52.114;11.674;2022-07-15T04:05:27;101418.84;;;13.72
60731;BMP280;46580;52.114;11.674;2022-07-15T04:07:53;101415.31;;;13.73
60731;BMP280;46580;52.114;11.674;2022-07-15T04:10:18;101415.06;;;13.75
60731;BMP280;46580;52.114;11.674;2022-07-15T04:12:43;101417.31;;;13.80
60731;BMP280;46580;52.114;11.674;2022-07-15T04:15:09;101423.31;;;13.80
60731;BMP280;46580;52.114;11.674;2022-07-15T04:17:35;101426.63;;;13.82
60731;BMP280;46580;52.114;11.674;2022-07-15T04:20:00;101435.28;;;13.81
60731;BMP280;46580;52.114;11.674;2022-07-15T04:22:26;101435.44;;;13.80
60731;BMP280;46580;52.114;11.674;2022-07-15T04:24:51;101426.63;;;13.82
60731;BMP280;46580;52.114;11.674;2022-07-15T04:27:17;101437.69;;;13.84
60731;BMP280;46580;52.114;11.674;2022-07-15T04:29:42;101431.09;;;13.91
60731;BMP280;46580;52.114;11.674;2022-07-15T04:32:08;101433.28;;;13.95
60731;BMP280;46580;52.114;11.674;2022-07-15T04:34:33;101437.66;;;13.95
60731;BMP280;46580;52.114;11.674;2022-07-15T04:36:58;101439.31;;;13.96
60731;BMP280;46580;52.114;11.674;2022-07-15T04:39:23;101437.31;;;13.99
60731;BMP280;46580;52.114;11.674;2022-07-15T04:41:49;101448.00;;;13.95
60731;BMP280;46580;52.114;11.674;2022-07-15T04:44:17;101445.06;;;13.99
60731;BMP280;46580;52.114;11.674;2022-07-15T04:46:42;101442.38;;;14.01
60731;BMP280;46580;52.114;11.674;2022-07-15T04:49:08;101443.66;;;13.95
60731;BMP280;46580;52.114;11.674;2022-07-15T04:51:52;101440.94;;;13.97
60731;BMP280;46580;52.114;11.674;2022-07-15T04:54:17;101440.72;;;14.00
60731;BMP280;46580;52.114;11.674;2022-07-15T04:56:42;101443.53;;;13.97
60731;BMP280;46580;52.114;11.674;2022-07-15T04:59:07;101445.41;;;14.06
60731;BMP280;46580;52.114;11.674;2022-07-15T05:01:33;101443.63;;;14.17
60731;BMP280;46580;52.114;11.674;2022-07-15T05:03:58;101446.06;;;14.29
60731;BMP280;46580;52.114;11.674;2022-07-15T05:06:24;101444.94;;;14.42
60731;BMP280;46580;52.114;11.674;2022-07-15T05:08:49;101449.06;;;14.45
60731;BMP280;46580;52.114;11.674;2022-07-15T05:11:14;101445.66;;;14.44
60731;BMP280;46580;52.114;11.674;2022-07-15T05:13:40;101457.75;;;14.54
60731;BMP280;46580;52.114;11.674;2022-07-15T05:16:05;101453.25;;;14.56
60731;BMP280;46580;52.114;11.674;2022-07-15T05:18:30;101462.88;;;14.65
60731;BMP280;46580;52.114;11.674;2022-07-15T05:20:56;101464.75;;;14.74
60731;BMP280;46580;52.114;11.674;2022-07-15T05:23:21;101464.19;;;14.90
60731;BMP280;46580;52.114;11.674;2022-07-15T05:25:46;101462.09;;;14.95
60731;BMP280;46580;52.114;11.674;2022-07-15T05:28:12;101464.41;;;14.98
60731;BMP280;46580;52.114;11.674;2022-07-15T05:30:37;101465.66;;;15.04
60731;BMP280;46580;52.114;11.674;2022-07-15T05:33:03;101463.03;;;15.14
60731;BMP280;46580;52.114;11.674;2022-07-15T05:35:28;101468.53;;;15.21
60731;BMP280;46580;52.114;11.674;2022-07-15T05:37:54;101468.22;;;15.34
60731;BMP280;46580;52.114;11.674;2022-07-15T05:40:19;101467.09;;;15.37
60731;BMP280;46580;52.114;11.674;2022-07-15T05:42:44;101470.28;;;15.40
60731;BMP280;46580;52.114;11.674;2022-07-15T05:45:10;101470.81;;;15.34
60731;BMP280;46580;52.114;11.674;2022-07-15T05:47:35;101470.84;;;15.43
60731;BMP280;46580;52.114;11.674;2022-07-15T05:50:01;101481.47;;;15.41
60731;BMP280;46580;52.114;11.674;2022-07-15T05:52:26;101477.97;;;15.51
60731;BMP280;46580;52.114;11.674;2022-07-15T05:54:52;101477.22;;;15.60
60731;BMP280;46580;52.114;11.674;2022-07-15T05:57:17;101479.41;;;15.64
60731;BMP280;46580;52.114;11.674;2022-07-15T05:59:42;101472.25;;;15.77
60731;BMP280;46580;52.114;11.674;2022-07-15T06:02:08;101475.41;;;15.80
60731;BMP280;46580;52.114;11.674;2022-07-15T06:04:33;101476.94;;;15.92
60731;BMP280;46580;52.114;11.674;2022-07-15T06:06:59;101487.72;;;15.87
60731;BMP280;46580;52.114;11.674;2022-07-15T06:09:24;101489.06;;;15.82
60731;BMP280;46580;52.114;11.674;2022-07-15T06:11:49;101478.53;;;16.03
60731;BMP280;46580;52.114;11.674;2022-07-15T06:14:15;101485.53;;;15.92
60731;BMP280;46580;52.114;11.674;2022-07-15T06:16:44;101478.16;;;15.88
60731;BMP280;46580;52.114;11.674;2022-07-15T06:19:09;101483.97;;;16.00
60731;BMP280;46580;52.114;11.674;2022-07-15T06:21:36;101487.16;;;16.13
60731;BMP280;46580;52.114;11.674;2022-07-15T06:24:01;101486.75;;;16.18
60731;BMP280;46580;52.114;11.674;2022-07-15T06:26:27;101480.94;;;16.43
60731;BMP280;46580;52.114;11.674;2022-07-15T06:28:52;101488.75;;;16.80
60731;BMP280;46580;52.114;11.674;2022-07-15T06:31:20;101486.31;;;16.70
60731;BMP280;46580;52.114;11.674;2022-07-15T06:33:46;101488.34;;;16.75
60731;BMP280;46580;52.114;11.674;2022-07-15T06:36:11;101483.00;;;16.86
60731;BMP280;46580;52.114;11.674;2022-07-15T06:38:36;101484.81;;;17.04
60731;BMP280;46580;52.114;11.674;2022-07-15T06:41:02;101493.84;;;17.10
60731;BMP280;46580;52.114;11.674;2022-07-15T06:43:27;101496.19;;;17.03
60731;BMP280;46580;52.114;11.674;2022-07-15T06:45:52;101487.25;;;16.87
60731;BMP280;46580;52.114;11.674;2022-07-15T06:48:18;101486.84;;;16.82
60731;BMP280;46580;52.114;11.674;2022-07-15T06:50:43;101490.41;;;16.63
60731;BMP280;46580;52.114;11.674;2022-07-15T06:53:09;101494.06;;;16.51
60731;BMP280;46580;52.114;11.674;2022-07-15T06:55:34;101497.03;;;16.37
60731;BMP280;46580;52.114;11.674;2022-07-15T06:57:59;101495.03;;;16.50
60731;BMP280;46580;52.114;11.674;2022-07-15T07:00:25;101494.75;;;16.53
60731;BMP280;46580;52.114;11.674;2022-07-15T07:02:50;101502.69;;;16.42
60731;BMP280;46580;52.114;11.674;2022-07-15T07:05:16;101493.94;;;16.62
60731;BMP280;46580;52.114;11.674;2022-07-15T07:07:42;101496.03;;;16.77
60731;BMP280;46580;52.114;11.674;2022-07-15T07:10:08;101497.81;;;16.95
60731;BMP280;46580;52.114;11.674;2022-07-15T07:12:34;101496.16;;;17.31
60731;BMP280;46580;52.114;11.674;2022-07-15T07:14:59;101499.41;;;17.51
60731;BMP280;46580;52.114;11.674;2022-07-15T07:17:27;101483.41;;;17.37
60731;BMP280;46580;52.114;11.674;2022-07-15T07:19:53;101499.97;;;17.36
60731;BMP280;46580;52.114;11.674;2022-07-15T07:22:18;101497.09;;;17.21
60731;BMP280;46580;52.114;11.674;2022-07-15T07:24:43;101506.94;;;17.36
60731;BMP280;46580;52.114;11.674;2022-07-15T07:27:10;101500.41;;;17.13
60731;BMP280;46580;52.114;11.674;2022-07-15T07:29:35;101507.00;;;17.17
60731;BMP280;46580;52.114;11.674;2022-07-15T07:32:01;101507.00;;;17.17
60731;BMP280;46580;52.114;11.674;2022-07-15T07:34:27;101508.19;;;17.32
60731;BMP280;46580;52.114;11.674;2022-07-15T07:36:52;101502.69;;;17.35
60731;BMP280;46580;52.114;11.674;2022-07-15T07:39:18;101506.13;;;17.26
60731;BMP280;46580;52.114;11.674;2022-07-15T07:41:43;101505.22;;;17.09
60731;BMP280;46580;52.114;11.674;2022-07-15T07:44:09;101495.63;;;17.09
60731;BMP280;46580;52.114;11.674;2022-07-15T07:46:34;101502.19;;;17.31
60731;BMP280;46580;52.114;11.674;2022-07-15T07:49:00;101498.84;;;17.39
60731;BMP280;46580;52.114;11.674;2022-07-15T07:51:25;101495.03;;;17.43
60731;BMP280;46580;52.114;11.674;2022-07-15T07:53:51;101500.75;;;17.55
60731;BMP280;46580;52.114;11.674;2022-07-15T07:56:18;101498.13;;;17.65
60731;BMP280;46580;52.114;11.674;2022-07-15T07:58:43;101495.50;;;17.65
60731;BMP280;46580;52.114;11.674;2022-07-15T08:01:08;101498.13;;;17.65
60731;BMP280;46580;52.114;11.674;2022-07-15T08:03:34;101501.56;;;17.56
60731;BMP280;46580;52.114;11.674;2022-07-15T08:05:59;101497.50;;;17.26
60731;BMP280;46580;52.114;11.674;2022-07-15T08:08:24;101504.66;;;17.14
60731;BMP280;46580;52.114;11.674;2022-07-15T08:10:55;101490.69;;;17.15
60731;BMP280;46580;52.114;11.674;2022-07-15T08:13:22;101497.22;;;17.38
60731;BMP280;46580;52.114;11.674;2022-07-15T08:15:49;101499.09;;;17.54
60731;BMP280;46580;52.114;11.674;2022-07-15T08:18:15;101489.41;;;17.92
60731;BMP280;46580;52.114;11.674;2022-07-15T08:20:41;101495.63;;;18.08
60731;BMP280;46580;52.114;11.674;2022-07-15T08:23:07;101489.44;;;18.09
60731;BMP280;46580;52.114;11.674;2022-07-15T08:25:35;101501.16;;;17.96
60731;BMP280;46580;52.114;11.674;2022-07-15T08:28:03;101497.69;;;17.69
60731;BMP280;46580;52.114;11.674;2022-07-15T08:30:30;101500.63;;;17.48
60731;BMP280;46580;52.114;11.674;2022-07-15T08:32:56;101499.09;;;17.54
60731;BMP280;46580;52.114;11.674;2022-07-15T08:35:23;101502.91;;;17.60
60731;BMP280;46580;52.114;11.674;2022-07-15T08:37:48;101494.38;;;17.67
60731;BMP280;46580;52.114;11.674;2022-07-15T08:40:14;101499.19;;;17.71
60731;BMP280;46580;52.114;11.674;2022-07-15T08:42:40;101497.94;;;17.75
60731;BMP280;46580;52.114;11.674;2022-07-15T08:45:07;101500.16;;;17.61
60731;BMP280;46580;52.114;11.674;2022-07-15T08:47:34;101490.56;;;17.71
60731;BMP280;46580;52.114;11.674;2022-07-15T08:50:02;101500.41;;;17.77
60731;BMP280;46580;52.114;11.674;2022-07-15T08:52:32;101497.69;;;17.69
60731;BMP280;46580;52.114;11.674;2022-07-15T08:54:59;101511.78;;;17.76
60731;BMP280;46580;52.114;11.674;2022-07-15T08:57:25;101505.22;;;17.72
60731;BMP280;46580;52.114;11.674;2022-07-15T08:59:52;101504.56;;;17.61
60731;BMP280;46580;52.114;11.674;2022-07-15T09:02:22;101500.84;;;17.63
60731;BMP280;46580;52.114;11.674;2022-07-15T09:05:23;101501.25;;;17.68
60731;BMP280;46580;52.114;11.674;2022-07-15T09:07:51;101512.09;;;17.64
60731;BMP280;46580;52.114;11.674;2022-07-15T09:10:21;101512.09;;;17.64
60731;BMP280;46580;52.114;11.674;2022-07-15T09:12:53;101511.97;;;17.65
60731;BMP280;46580;52.114;11.674;2022-07-15T09:15:32;101504.66;;;17.78
60731;BMP280;46580;52.114;11.674;2022-07-15T09:18:13;101506.44;;;17.68
60731;BMP280;46580;52.114;11.674;2022-07-15T09:20:41;101508.56;;;17.55
60731;BMP280;46580;52.114;11.674;2022-07-15T09:23:07;101501.00;;;17.62
60731;BMP280;46580;52.114;11.674;2022-07-15T09:25:33;101511.66;;;17.68
60731;BMP280;46580;52.114;11.674;2022-07-15T09:28:00;101511.97;;;17.65
60731;BMP280;46580;52.114;11.674;2022-07-15T09:30:32;101514.44;;;17.57
60731;BMP280;46580;52.114;11.674;2022-07-15T09:33:32;101516.19;;;17.66
60731;BMP280;46580;52.114;11.674;2022-07-15T09:36:23;101520.28;;;17.78
60731;BMP280;46580;52.114;11.674;2022-07-15T09:38:54;101514.34;;;17.94
60731;BMP280;46580;52.114;11.674;2022-07-15T09:43:53;101507.19;;;17.96
60731;BMP280;46580;52.114;11.674;2022-07-15T09:46:20;101510.88;;;18.03
60731;BMP280;46580;52.114;11.674;2022-07-15T09:48:48;101510.25;;;18.18
60731;BMP280;46580;52.114;11.674;2022-07-15T09:51:14;101500.13;;;18.59
60731;BMP280;46580;52.114;11.674;2022-07-15T09:53:40;101499.47;;;18.74
60731;BMP280;46580;52.114;11.674;2022-07-15T09:56:08;101506.22;;;18.50
60731;BMP280;46580;52.114;11.674;2022-07-15T09:58:37;101505.28;;;18.24
60731;BMP280;46580;52.114;11.674;2022-07-15T10:01:03;101504.97;;;18.27
60731;BMP280;46580;52.114;11.674;2022-07-15T10:03:29;101505.84;;;18.45
60731;BMP280;46580;52.114;11.674;2022-07-15T10:05:56;101516.56;;;18.42
60731;BMP280;46580;52.114;11.674;2022-07-15T10:08:24;101504.47;;;18.41
60731;BMP280;46580;52.114;11.674;2022-07-15T10:10:49;101508.53;;;18.53
60731;BMP280;46580;52.114;11.674;2022-07-15T10:16:00;101506.00;;;18.61
60731;BMP280;46580;52.114;11.674;2022-07-15T10:18:43;101503.56;;;18.59
60731;BMP280;46580;52.114;11.674;2022-07-15T10:21:51;101510.53;;;18.42
60731;BMP280;46580;52.114;11.674;2022-07-15T10:27:05;101516.38;;;18.26
60731;BMP280;46580;52.114;11.674;2022-07-15T10:29:33;101518.47;;;18.40
60731;BMP280;46580;52.114;11.674;2022-07-15T10:31:59;101516.94;;;18.47
60731;BMP280;46580;52.114;11.674;2022-07-15T10:34:36;101510.94;;;18.63
60731;BMP280;46580;52.114;11.674;2022-07-15T10:37:06;101515.94;;;18.74
60731;BMP280;46580;52.114;11.674;2022-07-15T10:42:13;101511.16;;;18.70
60731;BMP280;46580;52.114;11.674;2022-07-15T10:47:23;101517.91;;;18.72
60731;BMP280;46580;52.114;11.674;2022-07-15T10:49:49;101512.75;;;18.54
60731;BMP280;46580;52.114;11.674;2022-07-15T10:54:48;101511.97;;;18.70
60731;BMP280;46580;52.114;11.674;2022-07-15T10:57:15;101502.84;;;18.83
60731;BMP280;46580;52.114;11.674;2022-07-15T10:59:53;101510.13;;;18.80
60731;BMP280;46580;52.114;11.674;2022-07-15T11:02:21;101510.31;;;18.79
60731;BMP280;46580;52.114;11.674;2022-07-15T11:04:48;101509.59;;;18.60
60731;BMP280;46580;52.114;11.674;2022-07-15T11:09:46;101513.03;;;18.34
60731;BMP280;46580;52.114;11.674;2022-07-15T11:12:16;101519.66;;;18.28
60731;BMP280;46580;52.114;11.674;2022-07-15T11:14:49;101512.13;;;18.25
60731;BMP280;46580;52.114;11.674;2022-07-15T11:17:21;101512.28;;;18.24
60731;BMP280;46580;52.114;11.674;2022-07-15T11:19:49;101514.41;;;18.38
60731;BMP280;46580;52.114;11.674;2022-07-15T11:22:16;101514.53;;;18.36
60731;BMP280;46580;52.114;11.674;2022-07-15T11:24:42;101512.31;;;18.41
60731;BMP280;46580;52.114;11.674;2022-07-15T11:27:08;101519.13;;;18.51
60731;BMP280;46580;52.114;11.674;2022-07-15T11:30:04;101505.72;;;18.63
60731;BMP280;46580;52.114;11.674;2022-07-15T11:32:32;101511.44;;;18.67
60731;BMP280;46580;52.114;11.674;2022-07-15T11:35:00;101501.22;;;18.99
60731;BMP280;46580;52.114;11.674;2022-07-15T11:37:29;101502.56;;;19.28
60731;BMP280;46580;52.114;11.674;2022-07-15T11:40:11;101505.94;;;19.63
60731;BMP280;46580;52.114;11.674;2022-07-15T11:42:37;101510.13;;;19.56
60731;BMP280;46580;52.114;11.674;2022-07-15T11:45:37;101510.94;;;19.32
60731;BMP280;46580;52.114;11.674;2022-07-15T11:48:04;101509.34;;;19.21
60731;BMP280;46580;52.114;11.674;2022-07-15T11:50:32;101513.97;;;19.27
60731;BMP280;46580;52.114;11.674;2022-07-15T11:52:58;101512.91;;;18.96
60731;BMP280;46580;52.114;11.674;2022-07-15T11:55:24;101512.97;;;19.03
60731;BMP280;46580;52.114;11.674;2022-07-15T11:57:49;101509.09;;;18.73
60731;BMP280;46580;52.114;11.674;2022-07-15T12:00:26;101513.34;;;18.74
60731;BMP280;46580;52.114;11.674;2022-07-15T12:03:05;101507.34;;;18.64
60731;BMP280;46580;52.114;11.674;2022-07-15T12:05:30;101507.91;;;18.85
60731;BMP280;46580;52.114;11.674;2022-07-15T12:07:56;101513.13;;;18.85
60731;BMP280;46580;52.114;11.674;2022-07-15T12:10:33;101505.91;;;18.96
60731;BMP280;46580;52.114;11.674;2022-07-15T12:12:58;101504.84;;;19.06
60731;BMP280;46580;52.114;11.674;2022-07-15T12:15:28;101506.19;;;19.10
60731;BMP280;46580;52.114;11.674;2022-07-15T12:17:54;101501.09;;;19.09
60731;BMP280;46580;52.114;11.674;2022-07-15T12:20:21;101503.84;;;19.24
60731;BMP280;46580;52.114;11.674;2022-07-15T12:23:07;101504.44;;;19.85
60731;BMP280;46580;52.114;11.674;2022-07-15T12:25:33;101493.84;;;20.27
60731;BMP280;46580;52.114;11.674;2022-07-15T12:27:58;101497.56;;;20.17
60731;BMP280;46580;52.114;11.674;2022-07-15T12:30:38;101498.25;;;19.86
60731;BMP280;46580;52.114;11.674;2022-07-15T12:33:21;101492.44;;;20.00
60731;BMP280;46580;52.114;11.674;2022-07-15T12:35:48;101487.06;;;20.57
60731;BMP280;46580;52.114;11.674;2022-07-15T12:38:27;101485.44;;;20.56
60731;BMP280;46580;52.114;11.674;2022-07-15T12:40:56;101470.88;;;20.46
60731;BMP280;46580;52.114;11.674;2022-07-15T12:43:47;101478.22;;;20.43
60731;BMP280;46580;52.114;11.674;2022-07-15T12:46:14;101473.31;;;20.40
60731;BMP280;46580;52.114;11.674;2022-07-15T12:48:46;101485.75;;;20.05
60731;BMP280;46580;52.114;11.674;2022-07-15T12:51:16;101483.06;;;19.90
60731;BMP280;46580;52.114;11.674;2022-07-15T12:53:43;101480.28;;;19.91
60731;BMP280;46580;52.114;11.674;2022-07-15T12:56:09;101475.50;;;20.19
60731;BMP280;46580;52.114;11.674;2022-07-15T12:58:35;101484.63;;;20.08
60731;BMP280;46580;52.114;11.674;2022-07-15T13:01:12;101487.63;;;20.20
60731;BMP280;46580;52.114;11.674;2022-07-15T13:03:39;101480.34;;;19.99
60731;BMP280;46580;52.114;11.674;2022-07-15T13:06:06;101473.03;;;19.77
60731;BMP280;46580;52.114;11.674;2022-07-15T13:08:36;101476.03;;;19.90
60731;BMP280;46580;52.114;11.674;2022-07-15T13:11:04;101474.88;;;19.85
60731;BMP280;46580;52.114;11.674;2022-07-15T13:13:32;101485.44;;;19.75
60731;BMP280;46580;52.114;11.674;2022-07-15T13:15:58;101494.41;;;19.73
60731;BMP280;46580;52.114;11.674;2022-07-15T13:18:28;101483.50;;;19.77
60731;BMP280;46580;52.114;11.674;2022-07-15T13:20:54;101493.13;;;19.77
60731;BMP280;46580;52.114;11.674;2022-07-15T13:23:20;101478.69;;;19.98
60731;BMP280;46580;52.114;11.674;2022-07-15T13:25:46;101479.56;;;20.06
60731;BMP280;46580;52.114;11.674;2022-07-15T13:28:13;101487.94;;;20.25
60731;BMP280;46580;52.114;11.674;2022-07-15T13:30:39;101484.78;;;20.47
60731;BMP280;46580;52.114;11.674;2022-07-15T13:33:04;101470.59;;;20.72
60731;BMP280;46580;52.114;11.674;2022-07-15T13:35:30;101485.03;;;20.28
60731;BMP280;46580;52.114;11.674;2022-07-15T13:37:55;101487.50;;;19.97
60731;BMP280;46580;52.114;11.674;2022-07-15T13:40:21;101481.59;;;19.95
60731;BMP280;46580;52.114;11.674;2022-07-15T13:42:46;101477.00;;;19.89
60731;BMP280;46580;52.114;11.674;2022-07-15T13:45:12;101471.88;;;20.05
60731;BMP280;46580;52.114;11.674;2022-07-15T13:47:38;101473.94;;;19.93
60731;BMP280;46580;52.114;11.674;2022-07-15T13:50:04;101466.56;;;19.89
60731;BMP280;46580;52.114;11.674;2022-07-15T13:52:51;101479.19;;;19.93
60731;BMP280;46580;52.114;11.674;2022-07-15T13:55:20;101474.88;;;19.85
60731;BMP280;46580;52.114;11.674;2022-07-15T13:57:46;101469.88;;;19.99
60731;BMP280;46580;52.114;11.674;2022-07-15T14:00:17;101464.09;;;20.28
60731;BMP280;46580;52.114;11.674;2022-07-15T14:02:43;101462.66;;;20.33
60731;BMP280;46580;52.114;11.674;2022-07-15T14:05:11;101466.69;;;20.20